createdAt,value
2022-11-12T00:01:31.078Z,82.91
2022-11-12T00:04:16.984Z,83.09
2022-11-12T00:07:02.719Z,82.98
2022-11-12T00:09:48.643Z,83.13
2022-11-12T00:12:34.198Z,83.13
2022-11-12T00:15:19.804Z,82.87
2022-11-12T00:18:06.089Z,82.62
2022-11-12T00:20:52.002Z,81.77
2022-11-12T00:23:37.851Z,81.61
2022-11-12T00:26:23.543Z,81.32
2022-11-12T00:29:08.757Z,81.21
2022-11-12T00:31:54.214Z,81.17
2022-11-12T00:34:40.009Z,81.31
2022-11-12T00:37:25.893Z,81.75
2022-11-12T00:40:11.806Z,81.99
2022-11-12T00:42:57.346Z,82.18
2022-11-12T00:45:43.612Z,82.17
2022-11-12T00:48:33.685Z,81.88
2022-11-12T00:51:19.624Z,81.03
2022-11-12T00:54:06.566Z,81.59
2022-11-12T00:56:52.178Z,82.35
2022-11-12T00:59:37.698Z,82.61
2022-11-12T01:02:23.229Z,82.73
2022-11-12T01:05:09.536Z,82.91
2022-11-12T01:07:56.291Z,83.13
2022-11-12T01:10:43.505Z,83.05
2022-11-12T01:13:29.070Z,83.24
2022-11-12T01:16:19.871Z,82.84
2022-11-12T01:19:08.252Z,82.61
2022-11-12T01:21:53.814Z,82.50
2022-11-12T01:24:39.355Z,82.32
2022-11-12T01:27:25.074Z,82.38
2022-11-12T01:30:11.137Z,82.54
2022-11-12T01:32:57.043Z,82.75
2022-11-12T01:35:42.638Z,82.86
2022-11-12T01:38:28.720Z,82.00
2022-11-12T01:41:24.126Z,81.42
2022-11-12T01:44:13.126Z,81.10
2022-11-12T01:47:18.422Z,81.37
2022-11-12T01:50:07.122Z,81.50
2022-11-12T01:52:58.499Z,80.11
2022-11-12T01:55:44.402Z,79.98
2022-11-12T01:58:32.106Z,79.33
2022-11-12T02:01:17.696Z,78.22
2022-11-12T02:04:03.648Z,78.17
2022-11-12T02:06:51.833Z,78.32
2022-11-12T02:09:38.107Z,78.67
2022-11-12T02:12:42.706Z,79.22
2022-11-12T02:15:49.766Z,80.48
2022-11-12T02:18:36.343Z,80.22
2022-11-12T02:21:23.938Z,80.60
2022-11-12T02:24:13.090Z,78.92
2022-11-12T02:27:00.067Z,78.62
2022-11-12T02:29:48.693Z,78.72
2022-11-12T02:32:34.343Z,78.96
2022-11-12T02:35:19.855Z,77.81
2022-11-12T02:38:06.555Z,77.62
2022-11-12T02:40:52.620Z,77.45
2022-11-12T02:43:38.157Z,77.46
2022-11-12T02:46:23.624Z,77.46
2022-11-12T02:49:08.944Z,77.88
2022-11-12T02:51:55.065Z,78.71
2022-11-12T02:54:40.895Z,79.02
2022-11-12T02:57:27.429Z,79.15
2022-11-12T03:00:13.892Z,78.82
2022-11-12T03:02:59.711Z,79.06
2022-11-12T03:05:46.327Z,79.38
2022-11-12T03:08:32.062Z,79.60
2022-11-12T03:11:18.401Z,79.19
2022-11-12T03:14:04.167Z,78.86
2022-11-12T03:16:49.981Z,79.30
2022-11-12T03:19:36.038Z,79.62
2022-11-12T03:22:21.689Z,79.51
2022-11-12T03:25:08.772Z,79.58
2022-11-12T03:27:58.639Z,79.52
2022-11-12T03:30:45.436Z,79.46
2022-11-12T03:33:31.640Z,79.63
2022-11-12T03:36:17.441Z,79.80
2022-11-12T03:39:03.104Z,79.93
2022-11-12T03:41:48.749Z,80.21
2022-11-12T03:44:34.458Z,80.33
2022-11-12T03:47:19.970Z,80.12
2022-11-12T03:50:06.719Z,80.09
2022-11-12T03:52:56.418Z,80.15
2022-11-12T03:55:42.432Z,80.42
2022-11-12T03:58:28.102Z,80.31
2022-11-12T04:01:14.255Z,80.30
2022-11-12T04:03:59.713Z,80.19
2022-11-12T04:07:03.572Z,80.44
2022-11-12T04:09:49.134Z,80.94
2022-11-12T04:12:53.295Z,80.90
2022-11-12T04:15:38.982Z,80.85
2022-11-12T04:18:43.083Z,80.86
2022-11-12T04:21:56.744Z,80.18
2022-11-12T04:25:01.581Z,80.55
2022-11-12T04:27:47.089Z,80.41
2022-11-12T04:30:32.476Z,79.99
2022-11-12T04:33:18.163Z,80.21
2022-11-12T04:36:03.793Z,80.31
2022-11-12T04:38:49.621Z,80.44
2022-11-12T04:41:53.800Z,80.50
2022-11-12T04:44:57.674Z,80.66
2022-11-12T04:47:46.642Z,80.57
2022-11-12T04:50:32.258Z,80.65
2022-11-12T04:53:18.185Z,80.60
2022-11-12T04:56:04.204Z,80.51
2022-11-12T04:58:50.150Z,80.38
2022-11-12T05:01:35.618Z,79.70
2022-11-12T05:04:22.175Z,79.33
2022-11-12T05:07:08.413Z,78.98
2022-11-12T05:09:54.077Z,78.99
2022-11-12T05:12:39.754Z,78.86
2022-11-12T05:15:25.637Z,78.78
2022-11-12T05:18:11.145Z,78.25
2022-11-12T05:20:56.792Z,78.13
2022-11-12T05:23:42.402Z,78.71
2022-11-12T05:26:28.247Z,78.57
2022-11-12T05:29:14.334Z,78.49
2022-11-12T05:32:00.046Z,77.33
2022-11-12T05:34:45.781Z,77.24
2022-11-12T05:37:31.624Z,77.32
2022-11-12T05:40:17.479Z,77.42
2022-11-12T05:43:03.208Z,77.06
2022-11-12T05:45:48.707Z,76.75
2022-11-12T05:48:34.478Z,76.23
2022-11-12T05:51:20.398Z,76.40
2022-11-12T05:54:06.754Z,76.35
2022-11-12T05:56:53.674Z,75.98
2022-11-12T05:59:39.507Z,75.84
2022-11-12T06:02:25.331Z,75.76
2022-11-12T06:05:10.974Z,75.63
2022-11-12T06:07:56.277Z,75.58
2022-11-12T06:10:42.357Z,75.23
2022-11-12T06:13:29.200Z,74.63
2022-11-12T06:16:14.679Z,74.09
2022-11-12T06:19:00.501Z,73.75
2022-11-12T06:21:46.050Z,73.39
2022-11-12T06:24:35.115Z,72.66
2022-11-12T06:27:20.961Z,72.51
2022-11-12T06:30:07.472Z,72.57
2022-11-12T06:32:53.376Z,72.78
2022-11-12T06:35:42.979Z,72.65
2022-11-12T06:38:38.500Z,72.93
2022-11-12T06:41:24.239Z,73.23
2022-11-12T06:44:09.872Z,73.24
2022-11-12T06:46:55.431Z,73.13
2022-11-12T06:49:41.215Z,73.21
2022-11-12T06:52:26.773Z,73.02
2022-11-12T06:55:12.525Z,72.78
2022-11-12T06:57:58.027Z,72.49
2022-11-12T07:00:43.838Z,72.53
2022-11-12T07:03:29.541Z,72.48
2022-11-12T07:06:20.410Z,72.22
2022-11-12T07:09:06.383Z,72.16
2022-11-12T07:11:51.884Z,72.32
2022-11-12T07:14:38.702Z,72.50
2022-11-12T07:17:24.354Z,72.73
2022-11-12T07:20:10.833Z,72.41
2022-11-12T07:23:00.482Z,71.89
2022-11-12T07:25:46.102Z,71.38
2022-11-12T07:29:07.296Z,70.75
2022-11-12T07:31:52.785Z,70.50
2022-11-12T07:34:38.546Z,70.00
2022-11-12T07:37:24.223Z,69.57
2022-11-12T07:40:10.676Z,68.96
2022-11-12T07:42:56.094Z,68.68
2022-11-12T07:45:41.856Z,68.50
2022-11-12T07:48:29.826Z,67.59
2022-11-12T07:51:27.757Z,66.66
2022-11-12T07:54:13.804Z,66.27
2022-11-12T07:56:59.333Z,65.99
2022-11-12T07:59:46.512Z,65.70
2022-11-12T08:02:32.825Z,65.79
2022-11-12T08:05:21.336Z,64.86
2022-11-12T08:08:07.571Z,64.90
2022-11-12T08:10:57.564Z,64.50
2022-11-12T08:13:43.217Z,64.31
2022-11-12T08:16:28.951Z,64.36
2022-11-12T08:19:15.206Z,63.82
2022-11-12T08:22:00.923Z,64.01
2022-11-12T08:24:48.434Z,64.00
2022-11-12T08:27:34.293Z,64.28
2022-11-12T08:30:26.361Z,63.09
2022-11-12T08:33:12.765Z,63.12
2022-11-12T08:35:59.116Z,63.20
2022-11-12T08:38:45.370Z,62.96
2022-11-12T08:41:30.673Z,63.29
2022-11-12T08:44:16.604Z,63.21
2022-11-12T08:47:02.430Z,62.79
2022-11-12T08:49:48.371Z,63.16
2022-11-12T08:52:34.537Z,63.16
2022-11-12T08:55:21.008Z,62.40
2022-11-12T08:58:07.825Z,62.28
2022-11-12T09:00:53.787Z,62.40
2022-11-12T09:03:39.959Z,61.87
2022-11-12T09:06:26.070Z,61.51
2022-11-12T09:09:11.567Z,61.22
2022-11-12T09:11:58.227Z,61.32
2022-11-12T09:14:43.961Z,60.94
2022-11-12T09:17:32.816Z,60.74
2022-11-12T09:20:18.596Z,60.21
2022-11-12T09:23:28.871Z,60.17
2022-11-12T09:26:15.688Z,58.77
2022-11-12T09:29:01.574Z,59.00
2022-11-12T09:31:49.456Z,59.56
2022-11-12T09:34:35.881Z,59.62
2022-11-12T09:37:27.347Z,59.57
2022-11-12T09:40:18.530Z,59.03
2022-11-12T09:43:24.397Z,58.08
2022-11-12T09:46:29.914Z,57.99
2022-11-12T09:49:23.891Z,56.82
2022-11-12T09:52:27.019Z,56.88
2022-11-12T09:55:29.339Z,57.04
2022-11-12T09:58:17.836Z,56.72
2022-11-12T10:01:15.484Z,57.81
2022-11-12T10:04:21.023Z,57.82
2022-11-12T10:07:10.414Z,57.36
2022-11-12T10:10:04.720Z,57.23
2022-11-12T10:13:00.594Z,57.00
2022-11-12T10:16:32.817Z,56.70
2022-11-12T10:19:41.123Z,56.82
2022-11-12T10:23:02.912Z,56.97
2022-11-12T10:25:51.688Z,56.41
2022-11-12T10:28:43.873Z,57.37
2022-11-12T10:31:29.601Z,57.78
2022-11-12T10:34:19.233Z,58.19
2022-11-12T10:37:08.066Z,57.79
2022-11-12T10:39:54.246Z,58.40
2022-11-12T10:42:59.251Z,59.16
2022-11-12T10:45:46.367Z,59.71
2022-11-12T10:48:34.715Z,59.92
2022-11-12T10:51:28.684Z,59.86
2022-11-12T10:54:39.718Z,59.92
2022-11-12T10:57:29.143Z,60.75
2022-11-12T11:00:20.200Z,61.34
2022-11-12T11:03:29.085Z,61.97
2022-11-12T11:06:16.431Z,61.61
2022-11-12T11:09:19.913Z,61.95
2022-11-12T11:12:22.190Z,61.49
2022-11-12T11:15:24.250Z,61.14
2022-11-12T11:18:14.192Z,60.96
2022-11-12T11:21:22.250Z,60.67
2022-11-12T11:24:17.365Z,60.50
2022-11-12T11:27:13.522Z,60.32
2022-11-12T11:30:20.759Z,60.37
2022-11-12T11:33:23.482Z,60.57
2022-11-12T11:36:23.387Z,60.47
2022-11-12T11:39:28.172Z,60.83
2022-11-12T11:42:36.938Z,60.70
2022-11-12T11:45:28.562Z,60.71
